createdAt,value
2022-09-17T00:01:31.572Z,13.73
2022-09-17T00:04:02.179Z,13.87
2022-09-17T00:06:30.902Z,13.48
2022-09-17T00:09:00.313Z,13.77
2022-09-17T00:11:30.135Z,13.78
2022-09-17T00:14:00.606Z,13.90
2022-09-17T00:16:31.484Z,13.82
2022-09-17T00:19:00.451Z,13.53
2022-09-17T00:21:28.565Z,13.39
2022-09-17T00:23:58.034Z,13.59
2022-09-17T00:26:28.573Z,13.74
2022-09-17T00:28:57.877Z,13.51
2022-09-17T00:31:26.786Z,13.41
2022-09-17T00:33:55.563Z,13.34
2022-09-17T00:36:24.249Z,13.30
2022-09-17T00:38:52.788Z,13.27
2022-09-17T00:41:21.728Z,13.24
2022-09-17T00:43:53.989Z,13.49
2022-09-17T00:46:27.617Z,13.56
2022-09-17T00:48:56.661Z,13.27
2022-09-17T00:51:29.649Z,13.53
2022-09-17T00:53:57.998Z,13.11
2022-09-17T00:56:29.287Z,13.38
2022-09-17T00:58:59.093Z,13.30
2022-09-17T01:01:27.575Z,12.97
2022-09-17T01:03:55.729Z,12.94
2022-09-17T01:06:28.794Z,13.27
2022-09-17T01:09:11.860Z,13.54
2022-09-17T01:11:54.773Z,13.59
2022-09-17T01:14:36.169Z,13.46
2022-09-17T01:17:11.598Z,13.39
2022-09-17T01:19:58.148Z,13.44
2022-09-17T01:22:31.187Z,13.29
2022-09-17T01:25:23.161Z,13.47
2022-09-17T01:28:32.887Z,13.54
2022-09-17T01:31:14.683Z,13.33
2022-09-17T01:33:49.633Z,13.17
2022-09-17T01:36:23.939Z,13.13
2022-09-17T01:38:56.194Z,12.97
2022-09-17T01:41:34.250Z,13.13
2022-09-17T01:44:05.741Z,13.09
2022-09-17T01:46:38.846Z,13.15
2022-09-17T01:49:07.627Z,12.93
2022-09-17T01:51:39.511Z,13.23
2022-09-17T01:54:12.302Z,13.12
2022-09-17T01:56:43.750Z,13.00
2022-09-17T01:59:17.730Z,13.10
2022-09-17T02:01:49.623Z,13.03
2022-09-17T02:04:21.974Z,13.02
2022-09-17T02:06:54.380Z,12.98
2022-09-17T02:09:25.556Z,12.93
2022-09-17T02:11:56.624Z,13.38
2022-09-17T02:14:30.255Z,12.92
2022-09-17T02:17:04.950Z,12.87
2022-09-17T02:19:37.491Z,12.62
2022-09-17T02:22:15.663Z,12.73
2022-09-17T02:24:47.384Z,12.59
2022-09-17T02:27:20.818Z,12.68
2022-09-17T02:29:49.280Z,12.31
2022-09-17T02:32:19.124Z,12.50
2022-09-17T02:34:47.650Z,12.35
2022-09-17T02:37:16.031Z,12.18
2022-09-17T02:39:44.773Z,12.18
2022-09-17T02:42:23.720Z,12.58
2022-09-17T02:45:01.076Z,12.58
2022-09-17T02:47:50.513Z,12.73
2022-09-17T02:50:42.092Z,12.65
2022-09-17T02:53:26.380Z,12.57
2022-09-17T02:56:02.380Z,12.54
2022-09-17T02:58:35.303Z,12.24
2022-09-17T03:01:07.071Z,12.20
2022-09-17T03:03:40.098Z,12.22
2022-09-17T03:06:08.569Z,11.65
2022-09-17T03:08:40.359Z,11.81
2022-09-17T03:11:09.476Z,11.73
2022-09-17T03:13:38.308Z,11.73
2022-09-17T03:16:06.915Z,11.62
2022-09-17T03:18:36.560Z,11.78
2022-09-17T03:21:05.063Z,11.54
2022-09-17T03:23:34.123Z,11.41
2022-09-17T03:26:02.437Z,11.34
2022-09-17T03:28:30.864Z,11.30
2022-09-17T03:30:59.146Z,11.40
2022-09-17T03:33:27.517Z,11.48
2022-09-17T03:35:57.224Z,11.64
2022-09-17T03:38:25.596Z,11.45
2022-09-17T03:41:00.868Z,11.92
2022-09-17T03:43:29.606Z,11.52
2022-09-17T03:45:57.822Z,11.38
2022-09-17T03:48:25.896Z,11.41
2022-09-17T03:50:54.357Z,11.24
2022-09-17T03:53:23.944Z,11.56
2022-09-17T03:55:52.246Z,11.22
2022-09-17T03:58:20.698Z,11.22
2022-09-17T04:00:53.250Z,11.37
2022-09-17T04:03:22.737Z,11.32
2022-09-17T04:05:51.191Z,11.19
2022-09-17T04:08:19.561Z,11.29
2022-09-17T04:10:50.653Z,11.52
2022-09-17T04:13:18.911Z,11.24
2022-09-17T04:15:47.748Z,11.39
2022-09-17T04:18:16.712Z,11.33
2022-09-17T04:20:44.991Z,11.24
2022-09-17T04:23:13.646Z,11.37
2022-09-17T04:25:42.152Z,11.32
2022-09-17T04:28:11.924Z,11.59
2022-09-17T04:30:41.512Z,11.37
2022-09-17T04:33:10.053Z,11.40
2022-09-17T04:35:38.326Z,11.44
2022-09-17T04:38:06.605Z,11.44
2022-09-17T04:40:35.224Z,11.57
2022-09-17T04:43:04.303Z,11.71
2022-09-17T04:45:33.839Z,12.30
2022-09-17T04:48:03.004Z,12.31
2022-09-17T04:50:31.438Z,12.81
2022-09-17T04:52:59.570Z,13.36
2022-09-17T04:55:28.086Z,13.74
2022-09-17T04:57:57.003Z,13.76
2022-09-17T05:00:25.570Z,13.87
2022-09-17T05:02:56.801Z,14.31
2022-09-17T05:05:25.968Z,14.17
2022-09-17T05:07:54.492Z,14.46
2022-09-17T05:10:24.451Z,15.37
2022-09-17T05:12:53.797Z,15.89
2022-09-17T05:15:23.129Z,15.98
2022-09-17T05:17:51.557Z,15.80
2022-09-17T05:20:21.337Z,15.98
2022-09-17T05:22:51.457Z,15.71
2022-09-17T05:25:24.246Z,15.74
2022-09-17T05:27:54.198Z,15.36
2022-09-17T05:30:22.540Z,15.46
2022-09-17T05:32:50.790Z,15.25
2022-09-17T05:35:19.286Z,15.17
2022-09-17T05:37:48.980Z,15.57
2022-09-17T05:40:17.517Z,15.42
2022-09-17T05:42:46.191Z,15.73
2022-09-17T05:45:14.587Z,16.19
2022-09-17T05:47:42.844Z,16.65
2022-09-17T05:50:11.259Z,16.71
2022-09-17T05:52:39.739Z,16.78
2022-09-17T05:55:10.041Z,17.45
2022-09-17T05:57:38.628Z,17.79
2022-09-17T06:00:07.987Z,18.73
2022-09-17T06:02:36.468Z,18.79
2022-09-17T06:05:05.348Z,18.62
2022-09-17T06:07:34.033Z,18.39
2022-09-17T06:10:02.360Z,18.37
2022-09-17T06:12:32.469Z,18.49
2022-09-17T06:15:03.625Z,18.89
2022-09-17T06:17:34.442Z,18.99
2022-09-17T06:20:03.060Z,18.62
2022-09-17T06:22:32.191Z,18.57
2022-09-17T06:25:02.435Z,18.63
2022-09-17T06:27:33.949Z,18.90
2022-09-17T06:30:02.585Z,18.43
2022-09-17T06:32:30.871Z,18.22
2022-09-17T06:34:59.143Z,17.96
2022-09-17T06:37:29.586Z,18.10
2022-09-17T06:39:59.395Z,17.68
2022-09-17T06:42:28.686Z,17.71
2022-09-17T06:44:59.814Z,18.11
2022-09-17T06:47:29.160Z,17.87
2022-09-17T06:49:59.971Z,18.33
2022-09-17T06:52:28.138Z,18.67
2022-09-17T06:54:56.693Z,18.92
2022-09-17T06:57:24.877Z,19.20
2022-09-17T06:59:52.965Z,19.47
2022-09-17T07:02:22.437Z,19.90
2022-09-17T07:04:50.719Z,19.48
2022-09-17T07:07:19.055Z,19.28
2022-09-17T07:09:47.132Z,19.42
2022-09-17T07:12:16.009Z,19.63
2022-09-17T07:14:44.003Z,20.00
2022-09-17T07:17:12.298Z,20.66
2022-09-17T07:19:41.837Z,22.00
2022-09-17T07:22:09.955Z,22.90
2022-09-17T07:24:41.161Z,23.80
2022-09-17T07:27:09.480Z,24.98
2022-09-17T07:29:37.517Z,25.90
2022-09-17T07:32:05.806Z,25.94
2022-09-17T07:34:34.133Z,25.51
2022-09-17T07:37:04.079Z,24.86
2022-09-17T07:39:32.064Z,23.69
2022-09-17T07:42:00.277Z,23.15
2022-09-17T07:44:28.827Z,22.87
2022-09-17T07:46:56.873Z,22.65
2022-09-17T07:49:25.348Z,22.40
2022-09-17T07:51:54.877Z,22.03
2022-09-17T07:54:25.434Z,22.26
2022-09-17T07:56:53.619Z,22.04
2022-09-17T07:59:22.220Z,22.40
2022-09-17T08:01:50.316Z,22.87
2022-09-17T08:04:18.656Z,23.15
2022-09-17T08:06:48.476Z,23.26
2022-09-17T08:09:18.102Z,23.54
2022-09-17T08:11:56.657Z,23.66
2022-09-17T08:14:29.493Z,23.39
2022-09-17T08:16:58.604Z,23.71
2022-09-17T08:19:29.909Z,23.99
2022-09-17T08:21:58.445Z,24.15
2022-09-17T08:24:27.731Z,23.82
2022-09-17T08:26:57.142Z,23.46
2022-09-17T08:29:25.320Z,22.35
2022-09-17T08:31:53.588Z,21.94
2022-09-17T08:34:21.793Z,22.27
2022-09-17T08:36:49.843Z,22.84
2022-09-17T08:39:18.326Z,23.78
2022-09-17T08:41:59.500Z,25.38
2022-09-17T08:44:33.340Z,26.23
2022-09-17T08:47:06.165Z,27.70
2022-09-17T08:49:36.617Z,29.28
2022-09-17T08:52:36.579Z,29.94
2022-09-17T08:55:10.741Z,28.16
2022-09-17T08:57:45.061Z,26.57
2022-09-17T09:00:16.219Z,25.30
2022-09-17T09:03:01.423Z,24.54
2022-09-17T09:05:33.346Z,23.46
2022-09-17T09:08:05.818Z,22.86
2022-09-17T09:10:38.041Z,22.13
2022-09-17T09:13:07.498Z,21.50
2022-09-17T09:15:39.574Z,21.33
2022-09-17T09:18:20.240Z,21.49
2022-09-17T09:20:51.830Z,21.43
2022-09-17T09:23:22.216Z,21.52
2022-09-17T09:25:56.476Z,21.68
2022-09-17T09:28:36.370Z,21.39
2022-09-17T09:31:17.140Z,21.03
2022-09-17T09:33:47.932Z,20.46
2022-09-17T09:36:21.952Z,20.51
2022-09-17T09:38:55.833Z,20.54
2022-09-17T09:41:28.757Z,20.51
2022-09-17T09:44:04.673Z,20.68
2022-09-17T09:47:08.656Z,21.20
2022-09-17T09:49:55.364Z,21.19
2022-09-17T09:52:34.560Z,21.25
2022-09-17T09:55:17.034Z,21.63
2022-09-17T09:57:47.965Z,21.26
2022-09-17T10:00:33.106Z,21.58
2022-09-17T10:03:05.446Z,21.28
2022-09-17T10:05:33.612Z,20.67
2022-09-17T10:08:02.030Z,20.43
2022-09-17T10:10:30.259Z,20.14
2022-09-17T10:13:08.559Z,20.90
2022-09-17T10:15:38.632Z,20.94
2022-09-17T10:18:16.307Z,21.32
2022-09-17T10:20:52.568Z,21.21
2022-09-17T10:23:21.167Z,20.82
2022-09-17T10:25:52.217Z,20.81
2022-09-17T10:28:34.163Z,21.34
2022-09-17T10:31:09.016Z,21.01
2022-09-17T10:33:40.801Z,20.90
2022-09-17T10:36:11.263Z,20.85
2022-09-17T10:38:40.787Z,20.85
2022-09-17T10:41:17.948Z,21.11
2022-09-17T10:43:46.997Z,20.88
2022-09-17T10:46:26.650Z,21.17
2022-09-17T10:49:00.548Z,21.26
2022-09-17T10:51:29.305Z,21.08
2022-09-17T10:54:32.964Z,21.63
2022-09-17T10:57:01.974Z,21.05
2022-09-17T11:00:00.598Z,21.22
2022-09-17T11:02:56.313Z,20.87
2022-09-17T11:05:42.916Z,20.59
2022-09-17T11:08:14.801Z,20.28
2022-09-17T11:10:47.037Z,19.94
2022-09-17T11:13:23.776Z,19.89
2022-09-17T11:16:06.506Z,19.94
2022-09-17T11:18:41.589Z,19.89
2022-09-17T11:21:28.576Z,19.79
2022-09-17T11:24:46.800Z,19.85
2022-09-17T11:27:22.908Z,19.59
2022-09-17T11:30:03.255Z,19.70
2022-09-17T11:32:44.314Z,19.70
2022-09-17T11:35:17.602Z,19.53
2022-09-17T11:37:51.614Z,19.37
2022-09-17T11:40:23.905Z,19.17
2022-09-17T11:42:55.572Z,18.97
2022-09-17T11:45:23.920Z,19.47
2022-09-17T11:47:57.526Z,18.99
2022-09-17T11:50:29.538Z,19.04
2022-09-17T11:53:04.766Z,19.17
2022-09-17T11:55:37.030Z,19.22
2022-09-17T11:58:16.276Z,19.36
2022-09-17T12:00:49.022Z,19.27
2022-09-17T12:03:20.631Z,19.35
2022-09-17T12:05:53.414Z,19.35
2022-09-17T12:08:24.326Z,19.47
2022-09-17T12:10:55.303Z,19.46
2022-09-17T12:13:31.675Z,19.74
2022-09-17T12:16:11.900Z,19.91
2022-09-17T12:18:49.541Z,20.06
2022-09-17T12:21:22.126Z,20.12
2022-09-17T12:23:52.530Z,20.15
2022-09-17T12:26:29.685Z,20.62
2022-09-17T12:29:04.906Z,20.99
2022-09-17T12:31:37.735Z,21.22
2022-09-17T12:34:21.480Z,21.73
2022-09-17T12:36:53.967Z,21.82
2022-09-17T12:39:38.589Z,22.20
2022-09-17T12:42:16.621Z,22.08
2022-09-17T12:45:00.983Z,22.17
2022-09-17T12:47:50.551Z,22.38
2022-09-17T12:50:21.607Z,22.13
2022-09-17T12:52:57.629Z,22.65
2022-09-17T12:55:37.328Z,22.13
2022-09-17T12:58:12.659Z,21.78
2022-09-17T13:00:43.397Z,21.34
2022-09-17T13:03:18.398Z,21.28
2022-09-17T13:06:09.260Z,21.22
2022-09-17T13:09:16.569Z,21.30
2022-09-17T13:12:08.483Z,21.49
2022-09-17T13:14:59.303Z,21.68
2022-09-17T13:17:32.180Z,21.68
2022-09-17T13:20:05.127Z,21.82
2022-09-17T13:22:34.883Z,21.59
2022-09-17T13:25:07.331Z,21.71
2022-09-17T13:27:38.351Z,21.21
2022-09-17T13:30:08.330Z,21.32
2022-09-17T13:33:01.505Z,21.92
2022-09-17T13:35:50.514Z,22.16
2022-09-17T13:38:23.204Z,21.64
2022-09-17T13:41:20.389Z,22.31
2022-09-17T13:43:48.964Z,21.88
2022-09-17T13:46:22.870Z,22.14
2022-09-17T13:48:57.189Z,22.07
2022-09-17T13:51:50.443Z,22.23
2022-09-17T13:54:20.592Z,21.67
2022-09-17T13:56:54.647Z,21.58
2022-09-17T13:59:24.956Z,21.55
2022-09-17T14:02:00.656Z,21.77
2022-09-17T14:04:51.399Z,22.22
2022-09-17T14:07:33.432Z,22.15
2022-09-17T14:10:01.878Z,21.53
2022-09-17T14:12:58.363Z,22.18
2022-09-17T14:15:55.280Z,21.98
2022-09-17T14:18:37.884Z,21.96
2022-09-17T14:21:08.534Z,21.62
2022-09-17T14:23:44.107Z,21.88
2022-09-17T14:26:19.387Z,21.68
2022-09-17T14:28:55.434Z,21.55
2022-09-17T14:31:36.150Z,21.16
2022-09-17T14:34:06.383Z,20.86
2022-09-17T14:36:36.903Z,20.68
2022-09-17T14:39:06.508Z,20.36
2022-09-17T14:41:36.637Z,20.21
2022-09-17T14:44:09.254Z,20.17
2022-09-17T14:46:39.880Z,19.94
2022-09-17T14:49:22.793Z,20.02
2022-09-17T14:51:51.225Z,19.27
2022-09-17T14:54:24.979Z,19.46
2022-09-17T14:57:01.472Z,19.40
2022-09-17T14:59:45.464Z,19.48
2022-09-17T15:02:28.587Z,19.31
2022-09-17T15:04:57.104Z,18.62
2022-09-17T15:07:25.964Z,18.68
2022-09-17T15:09:55.579Z,18.49
2022-09-17T15:12:27.071Z,18.59
2022-09-17T15:14:57.857Z,18.43
2022-09-17T15:17:26.070Z,18.05
2022-09-17T15:19:56.902Z,18.19
2022-09-17T15:22:29.007Z,18.35
2022-09-17T15:24:59.286Z,18.11
2022-09-17T15:27:30.820Z,18.16
2022-09-17T15:30:02.846Z,18.02
2022-09-17T15:32:32.451Z,17.83
2022-09-17T15:35:20.823Z,18.43
2022-09-17T15:38:11.979Z,17.85
2022-09-17T15:40:41.143Z,17.99
2022-09-17T15:43:18.293Z,18.11
2022-09-17T15:45:47.865Z,17.87
2022-09-17T15:48:25.306Z,18.14
2022-09-17T15:50:54.917Z,17.86
2022-09-17T15:53:24.422Z,17.82
2022-09-17T15:56:07.517Z,18.14
2022-09-17T15:58:39.096Z,17.79
2022-09-17T16:01:31.227Z,18.28
2022-09-17T16:04:18.055Z,17.83
2022-09-17T16:06:50.856Z,17.57
2022-09-17T16:09:42.335Z,17.80
2022-09-17T16:12:13.175Z,17.34
2022-09-17T16:14:47.794Z,17.31
2022-09-17T16:17:33.160Z,17.50
2022-09-17T16:20:09.005Z,17.34
2022-09-17T16:22:37.072Z,16.77
2022-09-17T16:25:06.426Z,16.97
2022-09-17T16:27:44.882Z,17.23
2022-09-17T16:30:16.463Z,17.31
2022-09-17T16:32:44.753Z,16.82
2022-09-17T16:35:17.397Z,17.17
2022-09-17T16:37:48.739Z,16.96
2022-09-17T16:40:17.519Z,16.97
2022-09-17T16:42:45.801Z,16.86
2022-09-17T16:45:14.648Z,16.92
2022-09-17T16:47:43.301Z,16.93
2022-09-17T16:50:13.110Z,17.04
2022-09-17T16:52:43.126Z,17.06
2022-09-17T16:55:11.737Z,16.76
2022-09-17T16:57:39.769Z,16.70
2022-09-17T17:00:11.969Z,17.04
2022-09-17T17:02:40.051Z,16.68
2022-09-17T17:05:10.649Z,16.73
2022-09-17T17:07:38.869Z,16.58
2022-09-17T17:10:10.070Z,16.75
2022-09-17T17:12:38.725Z,16.38
2022-09-17T17:15:07.705Z,16.33
2022-09-17T17:17:36.518Z,16.27
2022-09-17T17:20:06.179Z,16.20
2022-09-17T17:22:34.310Z,16.07
2022-09-17T17:25:02.306Z,16.09
2022-09-17T17:27:32.017Z,16.44
2022-09-17T17:30:01.683Z,16.05
2022-09-17T17:32:29.821Z,16.13
2022-09-17T17:34:58.308Z,16.17
2022-09-17T17:37:26.867Z,16.28
2022-09-17T17:39:55.212Z,16.25
2022-09-17T17:42:23.703Z,16.33
2022-09-17T17:44:55.677Z,16.60
2022-09-17T17:47:23.850Z,16.27
2022-09-17T17:49:52.215Z,16.23
2022-09-17T17:52:20.366Z,16.17
2022-09-17T17:54:48.735Z,16.13
2022-09-17T17:57:17.082Z,16.06
2022-09-17T17:59:45.309Z,16.05
2022-09-17T18:02:15.025Z,16.31
2022-09-17T18:04:43.421Z,15.98
2022-09-17T18:07:11.482Z,15.96
2022-09-17T18:09:39.989Z,15.96
2022-09-17T18:12:09.278Z,16.13
2022-09-17T18:14:37.379Z,16.11
2022-09-17T18:17:05.890Z,16.15
2022-09-17T18:19:35.565Z,16.40
2022-09-17T18:22:04.489Z,16.11
2022-09-17T18:24:32.842Z,15.97
2022-09-17T18:27:01.178Z,15.92
2022-09-17T18:29:29.884Z,16.07
2022-09-17T18:31:57.932Z,15.88
2022-09-17T18:34:26.272Z,15.92
2022-09-17T18:36:55.723Z,16.24
2022-09-17T18:42:12.257Z,15.93
2022-09-17T18:44:40.538Z,15.96
2022-09-17T18:47:08.884Z,16.03
2022-09-17T18:49:37.533Z,15.98
2022-09-17T18:52:07.656Z,16.30
2022-09-17T18:54:35.781Z,15.96
2022-09-17T18:57:04.177Z,15.94
2022-09-17T18:59:32.895Z,15.97
2022-09-17T19:02:01.102Z,15.91
2022-09-17T19:04:30.143Z,15.86
2022-09-17T19:06:58.883Z,15.86
2022-09-17T19:09:28.417Z,16.12
2022-09-17T19:11:56.691Z,15.82
2022-09-17T19:14:24.976Z,15.82
2022-09-17T19:16:55.274Z,15.72
2022-09-17T19:19:23.912Z,15.77
2022-09-17T19:21:52.198Z,15.70
2022-09-17T19:24:20.525Z,15.55
2022-09-17T19:26:51.068Z,15.90
2022-09-17T19:29:19.463Z,15.46
2022-09-17T19:31:47.632Z,15.47
2022-09-17T19:34:17.211Z,15.35
2022-09-17T19:36:46.044Z,15.20
2022-09-17T19:39:14.322Z,15.15
2022-09-17T19:41:42.959Z,15.18
2022-09-17T19:44:12.892Z,15.54
2022-09-17T19:46:41.779Z,15.26
2022-09-17T19:49:11.267Z,15.30
2022-09-17T19:51:39.829Z,15.09
2022-09-17T19:54:09.695Z,15.19
2022-09-17T19:56:38.662Z,15.17
2022-09-17T19:59:06.933Z,15.08
2022-09-17T20:01:36.632Z,15.32
2022-09-17T20:04:05.382Z,15.00
2022-09-17T20:06:34.828Z,15.22
2022-09-17T20:09:03.417Z,14.96
2022-09-17T20:11:32.183Z,14.98
2022-09-17T20:14:03.796Z,15.14
2022-09-17T20:16:32.319Z,14.92
2022-09-17T20:19:02.189Z,15.15
2022-09-17T20:21:31.576Z,14.96
2022-09-17T20:24:01.191Z,14.90
2022-09-17T20:26:29.501Z,14.81
2022-09-17T20:28:57.877Z,14.90
2022-09-17T20:31:28.222Z,15.12
2022-09-17T20:33:57.730Z,15.05
2022-09-17T20:36:29.014Z,15.24
2022-09-17T20:39:11.074Z,15.83
2022-09-17T20:41:41.732Z,14.92
2022-09-17T20:44:10.246Z,14.85
2022-09-17T20:46:38.629Z,14.76
2022-09-17T20:49:07.341Z,14.74
2022-09-17T20:51:37.650Z,15.07
2022-09-17T20:54:07.629Z,14.85
2022-09-17T20:56:37.015Z,14.89
2022-09-17T20:59:14.386Z,14.91
2022-09-17T21:01:44.982Z,14.49
2022-09-17T21:04:15.471Z,14.83
2022-09-17T21:06:45.436Z,14.82
2022-09-17T21:09:16.156Z,14.65
2022-09-17T21:11:45.241Z,14.42
2022-09-17T21:14:15.348Z,14.41
2022-09-17T21:16:43.511Z,14.35
2022-09-17T21:19:13.427Z,14.54
2022-09-17T21:21:41.501Z,14.16
2022-09-17T21:24:11.211Z,14.44
2022-09-17T21:26:39.461Z,14.08
2022-09-17T21:29:07.910Z,14.15
2022-09-17T21:31:37.940Z,14.42
2022-09-17T21:34:07.773Z,14.42
2022-09-17T21:36:37.402Z,14.32
2022-09-17T21:39:07.082Z,14.30
2022-09-17T21:41:42.136Z,14.43
2022-09-17T21:44:11.128Z,14.19
2022-09-17T21:46:40.392Z,14.11
2022-09-17T21:49:08.748Z,13.97
2022-09-17T21:51:38.427Z,14.34
2022-09-17T21:54:07.906Z,14.23
2022-09-17T21:56:37.898Z,14.37
2022-09-17T21:59:08.016Z,14.34
2022-09-17T22:01:40.570Z,14.16
2022-09-17T22:04:10.065Z,14.23
2022-09-17T22:06:38.738Z,14.07
2022-09-17T22:09:08.554Z,14.19
2022-09-17T22:11:38.824Z,14.24
2022-09-17T22:14:10.948Z,14.12
2022-09-17T22:16:40.734Z,14.22
2022-09-17T22:19:09.732Z,14.08
2022-09-17T22:21:40.121Z,14.23
2022-09-17T22:24:08.648Z,14.00
2022-09-17T22:26:41.528Z,14.32
2022-09-17T22:29:12.744Z,14.30
2022-09-17T22:31:41.504Z,14.10
2022-09-17T22:34:10.550Z,14.17
2022-09-17T22:36:39.051Z,14.05
2022-09-17T22:39:07.960Z,14.04
2022-09-17T22:41:42.937Z,14.13
2022-09-17T22:44:13.582Z,14.24
2022-09-17T22:46:42.324Z,14.11
2022-09-17T22:49:11.736Z,14.10
2022-09-17T22:51:41.118Z,14.15
2022-09-17T22:54:11.723Z,14.25
2022-09-17T22:56:43.453Z,14.23
2022-09-17T22:59:11.985Z,14.05
2022-09-17T23:01:40.778Z,14.05
2022-09-17T23:04:09.275Z,13.90
2022-09-17T23:06:39.606Z,14.13
2022-09-17T23:09:07.987Z,13.85
2022-09-17T23:11:38.205Z,14.14
2022-09-17T23:14:09.694Z,14.25
2022-09-17T23:16:40.272Z,14.15
2022-09-17T23:19:10.598Z,14.16
2022-09-17T23:21:39.165Z,13.82
2022-09-17T23:24:07.717Z,13.78
2022-09-17T23:26:35.802Z,13.68
2022-09-17T23:29:05.558Z,13.76
2022-09-17T23:31:35.887Z,14.05
2022-09-17T23:34:05.321Z,13.98
2022-09-17T23:36:36.064Z,14.12
2022-09-17T23:39:05.368Z,14.18
2022-09-17T23:41:34.890Z,14.17
2022-09-17T23:44:05.410Z,14.27
2022-09-17T23:46:36.041Z,14.18
2022-09-17T23:49:05.246Z,14.14
2022-09-17T23:51:35.928Z,14.29
2022-09-17T23:54:05.305Z,13.90
2022-09-17T23:56:34.080Z,13.97
2022-09-17T23:59:02.693Z,14.02
